createdAt,value
2022-11-25T00:03:20.701Z,5.61
2022-11-25T00:08:23.101Z,5.76
2022-11-25T00:13:25.788Z,5.57
2022-11-25T00:18:28.556Z,5.60
2022-11-25T00:23:33.406Z,5.73
2022-11-25T00:28:36.460Z,5.85
2022-11-25T00:33:39.737Z,5.99
2022-11-25T00:38:42.131Z,6.38
2022-11-25T00:44:03.067Z,6.41
2022-11-25T00:49:05.559Z,6.29
2022-11-25T00:54:07.971Z,6.28
2022-11-25T00:59:10.948Z,6.27
2022-11-25T01:04:14.351Z,6.30
2022-11-25T01:09:18.720Z,6.43
2022-11-25T01:14:22.184Z,6.67
2022-11-25T01:19:24.804Z,7.28
2022-11-25T01:24:27.581Z,7.22
2022-11-25T01:29:30.082Z,7.36
2022-11-25T01:34:34.723Z,6.91
2022-11-25T01:39:38.822Z,6.49
2022-11-25T01:44:43.354Z,6.43
2022-11-25T01:49:51.729Z,6.58
2022-11-25T01:55:03.191Z,6.68
2022-11-25T02:00:07.866Z,6.77
2022-11-25T02:05:36.908Z,6.39
2022-11-25T02:10:39.675Z,6.66
2022-11-25T02:15:42.123Z,6.89
2022-11-25T02:20:44.613Z,7.01
2022-11-25T02:25:47.894Z,6.56
2022-11-25T02:30:53.712Z,6.16
2022-11-25T02:36:01.804Z,5.91
2022-11-25T02:41:20.024Z,5.85
2022-11-25T02:46:28.596Z,6.09
2022-11-25T02:51:32.726Z,6.49
2022-11-25T02:56:38.120Z,6.65
2022-11-25T03:01:40.713Z,6.62
2022-11-25T03:06:45.343Z,6.16
2022-11-25T03:12:06.693Z,6.03
2022-11-25T03:17:09.147Z,5.76
2022-11-25T03:22:11.658Z,5.61
2022-11-25T03:27:15.118Z,5.71
2022-11-25T03:32:17.992Z,5.67
2022-11-25T03:37:20.982Z,5.49
2022-11-25T03:42:23.753Z,5.36
2022-11-25T03:47:26.713Z,5.25
2022-11-25T03:52:29.233Z,5.28
2022-11-25T03:57:32.957Z,5.15
2022-11-25T04:02:35.627Z,5.12
2022-11-25T04:07:38.112Z,5.37
2022-11-25T04:12:49.197Z,5.12
2022-11-25T04:17:56.430Z,5.04
2022-11-25T04:22:59.347Z,5.00
2022-11-25T04:28:03.844Z,5.16
2022-11-25T04:33:09.469Z,5.39
2022-11-25T04:38:11.904Z,5.93
2022-11-25T04:43:14.981Z,6.38
2022-11-25T04:48:35.242Z,6.54
2022-11-25T04:53:39.096Z,6.47
2022-11-25T04:59:02.058Z,6.05
2022-11-25T05:04:05.396Z,5.86
2022-11-25T05:09:11.290Z,5.71
2022-11-25T05:14:16.310Z,5.50
2022-11-25T05:19:18.801Z,5.81
2022-11-25T05:24:21.345Z,5.94
2022-11-25T05:29:27.247Z,6.21
2022-11-25T05:34:31.073Z,5.94
2022-11-25T05:39:34.053Z,5.64
2022-11-25T05:44:57.152Z,5.24
2022-11-25T05:50:02.518Z,5.24
2022-11-25T05:55:06.736Z,5.65
2022-11-25T06:00:09.882Z,5.87
2022-11-25T06:05:19.372Z,5.99
2022-11-25T06:10:21.779Z,6.17
2022-11-25T06:15:24.961Z,5.96
2022-11-25T06:20:30.227Z,5.58
2022-11-25T06:25:33.654Z,5.39
2022-11-25T06:30:36.757Z,5.26
2022-11-25T06:35:48.869Z,5.24
2022-11-25T06:40:52.418Z,5.31
2022-11-25T06:46:01.332Z,5.32
2022-11-25T06:51:06.788Z,5.23
2022-11-25T06:56:16.164Z,5.28
2022-11-25T07:01:24.232Z,5.64
2022-11-25T07:06:27.460Z,5.93
2022-11-25T07:11:32.586Z,5.83
2022-11-25T07:16:35.147Z,6.13
2022-11-25T07:21:37.717Z,6.51
2022-11-25T07:26:42.027Z,6.67
2022-11-25T07:31:45.769Z,7.03
2022-11-25T07:36:50.125Z,7.03
2022-11-25T07:41:55.757Z,7.05
2022-11-25T07:46:58.402Z,7.21
2022-11-25T07:52:02.379Z,7.16
2022-11-25T07:57:04.804Z,7.01
2022-11-25T08:02:09.317Z,7.01
2022-11-25T08:07:12.217Z,7.09
2022-11-25T08:12:14.711Z,7.32
2022-11-25T08:17:17.147Z,7.62
2022-11-25T08:22:19.590Z,7.96
2022-11-25T08:27:22.020Z,8.20
2022-11-25T08:32:24.503Z,8.41
2022-11-25T08:37:27.159Z,8.47
2022-11-25T08:42:29.821Z,8.32
2022-11-25T08:47:32.334Z,8.43
2022-11-25T08:52:34.739Z,8.65
2022-11-25T08:57:37.212Z,8.71
2022-11-25T09:02:39.919Z,8.89
2022-11-25T09:07:42.682Z,9.05
2022-11-25T09:12:45.405Z,9.21
2022-11-25T09:17:47.970Z,9.45
2022-11-25T09:22:50.341Z,9.67
2022-11-25T09:27:52.807Z,9.85
2022-11-25T09:32:56.212Z,9.85
2022-11-25T09:37:58.912Z,9.88
2022-11-25T09:43:38.176Z,10.05
2022-11-25T09:49:00.241Z,10.05
2022-11-25T09:54:13.214Z,9.90
2022-11-25T09:59:27.733Z,10.02
2022-11-25T10:04:38.007Z,10.17
2022-11-25T10:09:40.846Z,10.03
2022-11-25T10:14:48.352Z,9.89
2022-11-25T10:19:53.780Z,9.83
2022-11-25T10:25:00.520Z,10.03
2022-11-25T10:30:22.174Z,10.47
2022-11-25T10:35:35.832Z,10.92
2022-11-25T10:40:38.239Z,11.34
2022-11-25T10:46:22.549Z,11.36
2022-11-25T10:51:31.064Z,11.22
2022-11-25T10:56:44.799Z,11.20
2022-11-25T11:01:47.320Z,11.05
2022-11-25T11:06:51.210Z,10.84
2022-11-25T11:11:53.613Z,10.68
2022-11-25T11:16:57.527Z,10.54
2022-11-25T11:22:16.802Z,10.66
2022-11-25T11:27:25.771Z,10.57
2022-11-25T11:32:29.398Z,10.55
2022-11-25T11:37:47.642Z,10.77
2022-11-25T11:42:58.937Z,10.88
2022-11-25T11:48:26.427Z,10.96
2022-11-25T11:53:34.734Z,10.89
2022-11-25T11:59:06.288Z,10.83
2022-11-25T12:04:26.328Z,10.93
2022-11-25T12:09:32.176Z,10.85
2022-11-25T12:14:46.542Z,10.80
2022-11-25T12:20:05.993Z,10.78
2022-11-25T12:25:19.223Z,10.81
2022-11-25T12:30:24.052Z,10.91
2022-11-25T12:35:37.663Z,10.89
2022-11-25T12:40:46.815Z,10.73
2022-11-25T12:45:58.009Z,10.73
2022-11-25T12:51:37.932Z,10.83
2022-11-25T12:57:15.968Z,10.83
2022-11-25T13:02:37.007Z,10.83
2022-11-25T13:08:04.051Z,10.77
2022-11-25T13:13:17.905Z,10.79
2022-11-25T13:18:26.139Z,10.86
2022-11-25T13:23:49.971Z,10.86
2022-11-25T13:28:52.443Z,10.94
2022-11-25T13:33:58.188Z,10.96
2022-11-25T13:39:13.099Z,10.87
2022-11-25T13:44:35.259Z,10.84
2022-11-25T13:50:18.994Z,11.16
2022-11-25T13:55:35.526Z,11.26
2022-11-25T14:00:43.805Z,11.17
2022-11-25T14:06:05.140Z,10.67
2022-11-25T14:11:10.757Z,10.50
2022-11-25T14:16:50.701Z,10.50
2022-11-25T14:22:05.518Z,10.66
2022-11-25T14:27:16.684Z,10.60
2022-11-25T14:32:43.754Z,10.51
2022-11-25T14:37:51.363Z,10.39
2022-11-25T14:43:03.300Z,10.10
2022-11-25T14:48:22.052Z,10.42
2022-11-25T14:53:25.734Z,10.61
2022-11-25T14:58:29.534Z,10.59
2022-11-25T15:03:32.520Z,10.33
2022-11-25T15:08:44.047Z,10.22
2022-11-25T15:13:49.518Z,10.16
2022-11-25T15:18:58.602Z,10.18
2022-11-25T15:24:21.303Z,10.33
2022-11-25T15:29:24.882Z,10.57
2022-11-25T15:34:30.655Z,10.43
2022-11-25T15:39:33.165Z,10.25
2022-11-25T15:44:44.347Z,10.27
2022-11-25T15:50:18.071Z,10.22
2022-11-25T15:55:39.805Z,10.11
2022-11-25T16:00:42.351Z,10.13
2022-11-25T16:05:56.354Z,10.14
2022-11-25T16:11:09.854Z,10.18
2022-11-25T16:16:16.873Z,10.00
2022-11-25T16:21:24.945Z,9.96
2022-11-25T16:26:29.702Z,10.09
2022-11-25T16:31:32.198Z,10.05
2022-11-25T16:36:34.624Z,10.01
2022-11-25T16:41:37.224Z,10.23
2022-11-25T16:46:39.661Z,10.03
2022-11-25T16:51:42.817Z,10.27
2022-11-25T16:56:45.986Z,10.51
2022-11-25T17:01:48.504Z,10.34
2022-11-25T17:07:16.875Z,10.30
2022-11-25T17:12:29.139Z,10.16
2022-11-25T17:17:31.898Z,9.86
2022-11-25T17:22:39.267Z,9.73
2022-11-25T17:27:42.796Z,9.73
2022-11-25T17:32:46.407Z,9.79
2022-11-25T17:37:49.374Z,9.91
2022-11-25T17:42:52.408Z,9.69
2022-11-25T17:47:55.102Z,9.54
2022-11-25T17:52:57.795Z,9.62
2022-11-25T17:58:01.668Z,9.60
2022-11-25T18:03:09.094Z,9.66
2022-11-25T18:08:11.478Z,9.66
2022-11-25T18:13:15.464Z,9.39
2022-11-25T18:18:22.233Z,9.30
2022-11-25T18:23:24.752Z,9.43
2022-11-25T18:28:29.926Z,9.66
2022-11-25T18:33:32.559Z,9.91
2022-11-25T18:38:38.000Z,9.81
2022-11-25T18:43:40.365Z,9.72
2022-11-25T18:48:43.050Z,9.64
2022-11-25T18:53:45.383Z,9.80
2022-11-25T18:58:52.022Z,9.82
2022-11-25T19:03:55.492Z,9.66
2022-11-25T19:08:58.322Z,9.61
2022-11-25T19:14:30.170Z,9.41
2022-11-25T19:19:32.783Z,9.33
2022-11-25T19:24:35.505Z,9.38
2022-11-25T19:29:42.382Z,9.43
2022-11-25T19:34:47.906Z,9.42
2022-11-25T19:39:51.640Z,9.34
2022-11-25T19:44:54.034Z,9.37
2022-11-25T19:50:00.462Z,9.28
2022-11-25T19:55:14.319Z,9.21
2022-11-25T20:00:18.917Z,9.17
2022-11-25T20:05:32.216Z,9.14
2022-11-25T20:10:34.905Z,9.05
2022-11-25T20:15:39.592Z,9.07
2022-11-25T20:20:42.878Z,9.14
2022-11-25T20:25:47.413Z,9.17
2022-11-25T20:30:51.118Z,9.31
2022-11-25T20:36:07.406Z,9.34
2022-11-25T20:41:12.761Z,9.35
2022-11-25T20:46:23.890Z,9.48
2022-11-25T20:51:26.675Z,9.45
2022-11-25T20:56:30.058Z,9.43
2022-11-25T21:01:32.520Z,9.39
2022-11-25T21:06:40.968Z,9.34
2022-11-25T21:11:43.802Z,9.33
2022-11-25T21:16:47.308Z,9.22
2022-11-25T21:21:51.899Z,9.07
2022-11-25T21:26:56.008Z,8.96
2022-11-25T21:31:58.890Z,8.89
2022-11-25T21:37:02.717Z,8.71
2022-11-25T21:42:15.395Z,8.66
2022-11-25T21:47:21.181Z,8.54
2022-11-25T21:52:23.554Z,8.48
2022-11-25T21:57:28.633Z,8.56
2022-11-25T22:02:31.298Z,8.53
2022-11-25T22:07:33.734Z,8.46
2022-11-25T22:12:40.990Z,8.30
2022-11-25T22:17:44.976Z,8.35
2022-11-25T22:22:47.392Z,8.58
2022-11-25T22:27:50.097Z,8.48
2022-11-25T22:33:13.385Z,8.69
2022-11-25T22:38:19.091Z,8.83
2022-11-25T22:43:29.671Z,8.90
2022-11-25T22:48:37.329Z,8.78
2022-11-25T22:53:39.722Z,8.58
2022-11-25T22:58:42.086Z,8.46
2022-11-25T23:03:45.245Z,8.19
2022-11-25T23:08:47.630Z,8.15
2022-11-25T23:13:49.985Z,7.92
2022-11-25T23:18:52.365Z,7.82
2022-11-25T23:23:55.313Z,7.83
2022-11-25T23:28:57.832Z,7.95
2022-11-25T23:34:00.316Z,7.91
2022-11-25T23:39:03.776Z,7.87
2022-11-25T23:44:23.961Z,8.06
2022-11-25T23:49:33.303Z,8.10
2022-11-25T23:54:44.193Z,8.09
2022-11-25T23:59:47.918Z,8.06
